sensor_id;sensor_type;location;lat;lon;timestamp;P1;durP1;ratioP1;P2;durP2;ratioP2
68655;SDS011;55638;51.122;13.606;2023-11-21T00:00:27;1.08;;;0.60;;
68655;SDS011;55638;51.122;13.606;2023-11-21T00:01:59;0.60;;;0.50;;
68655;SDS011;55638;51.122;13.606;2023-11-21T00:03:31;1.38;;;0.60;;
68655;SDS011;55638;51.122;13.606;2023-11-21T00:05:04;0.93;;;0.50;;
68655;SDS011;55638;51.122;13.606;2023-11-21T00:06:36;1.77;;;0.50;;
68655;SDS011;55638;51.122;13.606;2023-11-21T00:08:08;0.73;;;0.57;;
68655;SDS011;55638;51.122;13.606;2023-11-21T00:09:40;0.43;;;0.43;;
68655;SDS011;55638;51.122;13.606;2023-11-21T00:11:13;0.40;;;0.38;;
68655;SDS011;55638;51.122;13.606;2023-11-21T00:12:45;1.15;;;0.65;;
68655;SDS011;55638;51.122;13.606;2023-11-21T00:14:20;0.73;;;0.65;;
68655;SDS011;55638;51.122;13.606;2023-11-21T00:15:51;0.82;;;0.57;;
68655;SDS011;55638;51.122;13.606;2023-11-21T00:17:23;0.70;;;0.40;;
68655;SDS011;55638;51.122;13.606;2023-11-21T00:18:56;0.60;;;0.57;;
68655;SDS011;55638;51.122;13.606;2023-11-21T00:20:28;1.02;;;0.60;;
68655;SDS011;55638;51.122;13.606;2023-11-21T00:21:59;1.25;;;0.45;;
68655;SDS011;55638;51.122;13.606;2023-11-21T00:23:31;0.60;;;0.45;;
68655;SDS011;55638;51.122;13.606;2023-11-21T00:25:03;1.77;;;0.50;;
68655;SDS011;55638;51.122;13.606;2023-11-21T00:26:36;1.73;;;0.52;;
68655;SDS011;55638;51.122;13.606;2023-11-21T00:28:11;1.10;;;0.70;;
68655;SDS011;55638;51.122;13.606;2023-11-21T00:29:43;0.77;;;0.50;;
68655;SDS011;55638;51.122;13.606;2023-11-21T00:31:16;1.48;;;0.70;;
68655;SDS011;55638;51.122;13.606;2023-11-21T00:32:49;1.23;;;0.63;;
68655;SDS011;55638;51.122;13.606;2023-11-21T00:34:21;1.50;;;0.80;;
68655;SDS011;55638;51.122;13.606;2023-11-21T00:35:53;0.90;;;0.55;;
68655;SDS011;55638;51.122;13.606;2023-11-21T00:37:25;1.02;;;0.60;;
68655;SDS011;55638;51.122;13.606;2023-11-21T00:38:58;0.88;;;0.57;;
68655;SDS011;55638;51.122;13.606;2023-11-21T00:40:30;1.63;;;0.50;;
68655;SDS011;55638;51.122;13.606;2023-11-21T00:42:02;0.93;;;0.50;;
68655;SDS011;55638;51.122;13.606;2023-11-21T00:43:36;0.82;;;0.50;;
68655;SDS011;55638;51.122;13.606;2023-11-21T00:45:08;2.40;;;0.80;;
68655;SDS011;55638;51.122;13.606;2023-11-21T00:46:40;3.50;;;0.60;;
68655;SDS011;55638;51.122;13.606;2023-11-21T00:48:13;1.63;;;0.63;;
68655;SDS011;55638;51.122;13.606;2023-11-21T00:49:45;1.60;;;0.70;;
68655;SDS011;55638;51.122;13.606;2023-11-21T00:51:17;1.08;;;0.60;;
68655;SDS011;55638;51.122;13.606;2023-11-21T00:52:49;1.35;;;0.70;;
68655;SDS011;55638;51.122;13.606;2023-11-21T00:54:23;1.63;;;0.75;;
68655;SDS011;55638;51.122;13.606;2023-11-21T00:55:55;1.42;;;0.57;;
68655;SDS011;55638;51.122;13.606;2023-11-21T00:57:28;1.02;;;0.55;;
68655;SDS011;55638;51.122;13.606;2023-11-21T00:59:00;1.73;;;0.70;;
68655;SDS011;55638;51.122;13.606;2023-11-21T01:00:33;1.42;;;0.90;;
68655;SDS011;55638;51.122;13.606;2023-11-21T01:02:05;2.15;;;0.88;;
68655;SDS011;55638;51.122;13.606;2023-11-21T01:03:37;2.65;;;0.80;;
68655;SDS011;55638;51.122;13.606;2023-11-21T01:05:09;1.27;;;0.73;;
68655;SDS011;55638;51.122;13.606;2023-11-21T01:06:42;1.88;;;0.80;;
68655;SDS011;55638;51.122;13.606;2023-11-21T01:08:13;1.35;;;0.70;;
68655;SDS011;55638;51.122;13.606;2023-11-21T01:09:46;1.17;;;0.80;;
68655;SDS011;55638;51.122;13.606;2023-11-21T01:11:18;1.10;;;0.55;;
68655;SDS011;55638;51.122;13.606;2023-11-21T01:12:50;0.90;;;0.52;;
68655;SDS011;55638;51.122;13.606;2023-11-21T01:14:22;1.52;;;0.90;;
68655;SDS011;55638;51.122;13.606;2023-11-21T01:15:55;0.85;;;0.50;;
68655;SDS011;55638;51.122;13.606;2023-11-21T01:17:27;1.27;;;0.57;;
68655;SDS011;55638;51.122;13.606;2023-11-21T01:18:59;1.15;;;0.60;;
68655;SDS011;55638;51.122;13.606;2023-11-21T01:20:31;1.23;;;0.60;;
68655;SDS011;55638;51.122;13.606;2023-11-21T01:22:03;1.38;;;1.00;;
68655;SDS011;55638;51.122;13.606;2023-11-21T01:23:36;1.00;;;0.50;;
68655;SDS011;55638;51.122;13.606;2023-11-21T01:25:08;0.95;;;0.60;;
68655;SDS011;55638;51.122;13.606;2023-11-21T01:26:40;1.25;;;0.68;;
68655;SDS011;55638;51.122;13.606;2023-11-21T01:28:12;1.58;;;0.80;;
68655;SDS011;55638;51.122;13.606;2023-11-21T01:29:44;1.73;;;0.52;;
68655;SDS011;55638;51.122;13.606;2023-11-21T01:31:16;3.53;;;0.80;;
68655;SDS011;55638;51.122;13.606;2023-11-21T01:32:48;1.67;;;0.60;;
68655;SDS011;55638;51.122;13.606;2023-11-21T01:34:20;1.95;;;0.63;;
68655;SDS011;55638;51.122;13.606;2023-11-21T01:35:52;1.40;;;0.90;;
68655;SDS011;55638;51.122;13.606;2023-11-21T01:37:27;0.85;;;0.50;;
68655;SDS011;55638;51.122;13.606;2023-11-21T01:38:59;1.00;;;0.55;;
68655;SDS011;55638;51.122;13.606;2023-11-21T01:40:31;2.97;;;0.60;;
68655;SDS011;55638;51.122;13.606;2023-11-21T01:42:04;1.23;;;0.45;;
68655;SDS011;55638;51.122;13.606;2023-11-21T01:43:36;1.17;;;0.47;;
68655;SDS011;55638;51.122;13.606;2023-11-21T01:45:09;0.98;;;0.47;;
68655;SDS011;55638;51.122;13.606;2023-11-21T01:46:45;1.23;;;0.43;;
68655;SDS011;55638;51.122;13.606;2023-11-21T01:48:18;0.63;;;0.45;;
68655;SDS011;55638;51.122;13.606;2023-11-21T01:49:51;1.80;;;0.30;;
68655;SDS011;55638;51.122;13.606;2023-11-21T01:51:24;0.82;;;0.45;;
68655;SDS011;55638;51.122;13.606;2023-11-21T01:52:59;1.05;;;0.50;;
68655;SDS011;55638;51.122;13.606;2023-11-21T01:54:32;2.50;;;0.50;;
68655;SDS011;55638;51.122;13.606;2023-11-21T01:56:05;0.98;;;0.57;;
68655;SDS011;55638;51.122;13.606;2023-11-21T01:57:40;1.65;;;0.40;;
68655;SDS011;55638;51.122;13.606;2023-11-21T01:59:14;0.68;;;0.43;;
68655;SDS011;55638;51.122;13.606;2023-11-21T02:00:51;2.80;;;0.70;;
68655;SDS011;55638;51.122;13.606;2023-11-21T02:02:24;1.10;;;0.60;;
68655;SDS011;55638;51.122;13.606;2023-11-21T02:03:56;1.00;;;0.60;;
68655;SDS011;55638;51.122;13.606;2023-11-21T02:05:28;1.35;;;0.50;;
68655;SDS011;55638;51.122;13.606;2023-11-21T02:07:03;1.77;;;0.60;;
68655;SDS011;55638;51.122;13.606;2023-11-21T02:08:37;2.22;;;0.80;;
68655;SDS011;55638;51.122;13.606;2023-11-21T02:10:09;2.20;;;0.70;;
68655;SDS011;55638;51.122;13.606;2023-11-21T02:11:41;1.23;;;0.90;;
68655;SDS011;55638;51.122;13.606;2023-11-21T02:13:14;1.30;;;0.88;;
68655;SDS011;55638;51.122;13.606;2023-11-21T02:14:46;2.53;;;1.20;;
68655;SDS011;55638;51.122;13.606;2023-11-21T02:16:19;1.95;;;1.00;;
68655;SDS011;55638;51.122;13.606;2023-11-21T02:17:52;2.60;;;1.10;;
68655;SDS011;55638;51.122;13.606;2023-11-21T02:19:26;2.63;;;1.00;;
68655;SDS011;55638;51.122;13.606;2023-11-21T02:20:58;1.17;;;0.73;;
68655;SDS011;55638;51.122;13.606;2023-11-21T02:22:30;3.05;;;1.10;;
68655;SDS011;55638;51.122;13.606;2023-11-21T02:24:07;1.50;;;0.77;;
68655;SDS011;55638;51.122;13.606;2023-11-21T02:25:39;1.20;;;0.73;;
68655;SDS011;55638;51.122;13.606;2023-11-21T02:27:14;1.17;;;0.77;;
68655;SDS011;55638;51.122;13.606;2023-11-21T02:28:52;3.10;;;0.80;;
68655;SDS011;55638;51.122;13.606;2023-11-21T02:30:25;3.72;;;1.23;;
68655;SDS011;55638;51.122;13.606;2023-11-21T02:31:57;1.25;;;0.60;;
68655;SDS011;55638;51.122;13.606;2023-11-21T02:33:29;2.75;;;0.95;;
68655;SDS011;55638;51.122;13.606;2023-11-21T02:35:05;1.55;;;0.73;;
68655;SDS011;55638;51.122;13.606;2023-11-21T02:36:40;1.00;;;0.50;;
68655;SDS011;55638;51.122;13.606;2023-11-21T02:38:14;4.53;;;0.60;;
68655;SDS011;55638;51.122;13.606;2023-11-21T02:39:47;1.83;;;0.60;;
68655;SDS011;55638;51.122;13.606;2023-11-21T02:41:19;1.98;;;0.60;;
68655;SDS011;55638;51.122;13.606;2023-11-21T02:42:51;1.92;;;0.60;;
68655;SDS011;55638;51.122;13.606;2023-11-21T02:44:24;1.67;;;0.45;;
68655;SDS011;55638;51.122;13.606;2023-11-21T02:45:56;1.67;;;0.60;;
68655;SDS011;55638;51.122;13.606;2023-11-21T02:47:28;1.55;;;0.60;;
68655;SDS011;55638;51.122;13.606;2023-11-21T02:49:01;1.77;;;0.55;;
68655;SDS011;55638;51.122;13.606;2023-11-21T02:50:37;1.40;;;0.60;;
68655;SDS011;55638;51.122;13.606;2023-11-21T02:52:09;2.35;;;0.70;;
68655;SDS011;55638;51.122;13.606;2023-11-21T02:53:41;1.75;;;0.80;;
68655;SDS011;55638;51.122;13.606;2023-11-21T02:55:13;2.17;;;0.80;;
68655;SDS011;55638;51.122;13.606;2023-11-21T02:56:45;3.65;;;0.60;;
68655;SDS011;55638;51.122;13.606;2023-11-21T02:58:17;0.90;;;0.70;;
68655;SDS011;55638;51.122;13.606;2023-11-21T02:59:49;2.72;;;0.80;;
68655;SDS011;55638;51.122;13.606;2023-11-21T03:01:21;2.13;;;1.10;;
68655;SDS011;55638;51.122;13.606;2023-11-21T03:02:55;0.93;;;0.63;;
68655;SDS011;55638;51.122;13.606;2023-11-21T03:04:30;1.58;;;0.55;;
68655;SDS011;55638;51.122;13.606;2023-11-21T03:06:04;2.05;;;0.85;;
68655;SDS011;55638;51.122;13.606;2023-11-21T03:07:37;1.52;;;0.60;;
68655;SDS011;55638;51.122;13.606;2023-11-21T03:09:10;2.22;;;0.85;;
68655;SDS011;55638;51.122;13.606;2023-11-21T03:10:43;1.00;;;0.40;;
68655;SDS011;55638;51.122;13.606;2023-11-21T03:12:15;0.75;;;0.52;;
68655;SDS011;55638;51.122;13.606;2023-11-21T03:13:47;1.83;;;0.65;;
68655;SDS011;55638;51.122;13.606;2023-11-21T03:15:19;0.90;;;0.40;;
68655;SDS011;55638;51.122;13.606;2023-11-21T03:16:51;1.48;;;0.68;;
68655;SDS011;55638;51.122;13.606;2023-11-21T03:18:23;2.10;;;0.65;;
68655;SDS011;55638;51.122;13.606;2023-11-21T03:19:55;2.33;;;0.70;;
68655;SDS011;55638;51.122;13.606;2023-11-21T03:21:28;3.10;;;0.93;;
68655;SDS011;55638;51.122;13.606;2023-11-21T03:23:01;1.05;;;0.60;;
68655;SDS011;55638;51.122;13.606;2023-11-21T03:24:33;1.92;;;0.70;;
68655;SDS011;55638;51.122;13.606;2023-11-21T03:26:05;0.90;;;0.63;;
68655;SDS011;55638;51.122;13.606;2023-11-21T03:27:40;1.08;;;0.50;;
68655;SDS011;55638;51.122;13.606;2023-11-21T03:29:12;2.03;;;0.85;;
68655;SDS011;55638;51.122;13.606;2023-11-21T03:30:43;1.48;;;0.55;;
68655;SDS011;55638;51.122;13.606;2023-11-21T03:32:15;1.40;;;0.60;;
68655;SDS011;55638;51.122;13.606;2023-11-21T03:33:48;1.17;;;0.80;;
68655;SDS011;55638;51.122;13.606;2023-11-21T03:35:22;1.83;;;0.70;;
68655;SDS011;55638;51.122;13.606;2023-11-21T03:36:54;2.10;;;0.73;;
68655;SDS011;55638;51.122;13.606;2023-11-21T03:38:27;1.88;;;0.93;;
68655;SDS011;55638;51.122;13.606;2023-11-21T03:40:00;0.77;;;0.68;;
68655;SDS011;55638;51.122;13.606;2023-11-21T03:41:32;2.05;;;0.90;;
68655;SDS011;55638;51.122;13.606;2023-11-21T03:43:05;1.15;;;0.70;;
68655;SDS011;55638;51.122;13.606;2023-11-21T03:44:37;1.45;;;0.68;;
68655;SDS011;55638;51.122;13.606;2023-11-21T03:46:09;1.40;;;0.70;;
68655;SDS011;55638;51.122;13.606;2023-11-21T03:47:42;2.35;;;0.80;;
68655;SDS011;55638;51.122;13.606;2023-11-21T03:49:14;1.52;;;0.75;;
68655;SDS011;55638;51.122;13.606;2023-11-21T03:50:46;1.63;;;0.65;;
68655;SDS011;55638;51.122;13.606;2023-11-21T03:52:19;2.00;;;0.90;;
68655;SDS011;55638;51.122;13.606;2023-11-21T03:53:50;1.15;;;0.73;;
68655;SDS011;55638;51.122;13.606;2023-11-21T03:55:22;1.90;;;0.95;;
68655;SDS011;55638;51.122;13.606;2023-11-21T03:56:56;3.03;;;0.75;;
68655;SDS011;55638;51.122;13.606;2023-11-21T03:58:28;2.53;;;0.75;;
68655;SDS011;55638;51.122;13.606;2023-11-21T04:00:00;1.65;;;0.80;;
68655;SDS011;55638;51.122;13.606;2023-11-21T04:01:42;2.45;;;0.90;;
68655;SDS011;55638;51.122;13.606;2023-11-21T04:03:14;2.33;;;0.80;;
68655;SDS011;55638;51.122;13.606;2023-11-21T04:04:47;1.05;;;0.70;;
68655;SDS011;55638;51.122;13.606;2023-11-21T04:06:19;1.70;;;0.88;;
68655;SDS011;55638;51.122;13.606;2023-11-21T04:07:51;2.05;;;1.00;;
68655;SDS011;55638;51.122;13.606;2023-11-21T04:09:23;1.30;;;0.73;;
68655;SDS011;55638;51.122;13.606;2023-11-21T04:10:56;1.13;;;0.77;;
68655;SDS011;55638;51.122;13.606;2023-11-21T04:12:29;2.17;;;0.65;;
68655;SDS011;55638;51.122;13.606;2023-11-21T04:14:01;1.60;;;0.70;;
68655;SDS011;55638;51.122;13.606;2023-11-21T04:15:33;2.15;;;0.80;;
68655;SDS011;55638;51.122;13.606;2023-11-21T04:17:05;2.30;;;0.90;;
68655;SDS011;55638;51.122;13.606;2023-11-21T04:18:37;1.33;;;0.60;;
68655;SDS011;55638;51.122;13.606;2023-11-21T04:20:10;2.67;;;0.70;;
68655;SDS011;55638;51.122;13.606;2023-11-21T04:21:42;2.40;;;0.88;;
68655;SDS011;55638;51.122;13.606;2023-11-21T04:23:14;1.38;;;0.75;;
68655;SDS011;55638;51.122;13.606;2023-11-21T04:24:46;1.27;;;0.73;;
68655;SDS011;55638;51.122;13.606;2023-11-21T04:26:18;2.47;;;1.05;;
68655;SDS011;55638;51.122;13.606;2023-11-21T04:27:50;3.92;;;1.08;;
68655;SDS011;55638;51.122;13.606;2023-11-21T04:29:22;2.42;;;1.00;;
68655;SDS011;55638;51.122;13.606;2023-11-21T04:30:54;2.15;;;1.00;;
68655;SDS011;55638;51.122;13.606;2023-11-21T04:32:27;3.90;;;1.10;;
68655;SDS011;55638;51.122;13.606;2023-11-21T04:33:59;3.17;;;1.00;;
68655;SDS011;55638;51.122;13.606;2023-11-21T04:35:31;2.38;;;1.05;;
68655;SDS011;55638;51.122;13.606;2023-11-21T04:37:03;2.50;;;1.20;;
68655;SDS011;55638;51.122;13.606;2023-11-21T04:38:37;2.38;;;1.38;;
68655;SDS011;55638;51.122;13.606;2023-11-21T04:40:09;4.70;;;1.38;;
68655;SDS011;55638;51.122;13.606;2023-11-21T04:41:42;4.00;;;1.40;;
68655;SDS011;55638;51.122;13.606;2023-11-21T04:43:14;2.17;;;1.20;;
68655;SDS011;55638;51.122;13.606;2023-11-21T04:44:47;2.53;;;1.10;;
68655;SDS011;55638;51.122;13.606;2023-11-21T04:46:19;2.45;;;1.40;;
68655;SDS011;55638;51.122;13.606;2023-11-21T04:47:51;2.17;;;1.05;;
68655;SDS011;55638;51.122;13.606;2023-11-21T04:49:24;3.30;;;0.90;;
68655;SDS011;55638;51.122;13.606;2023-11-21T04:50:56;2.72;;;1.08;;
68655;SDS011;55638;51.122;13.606;2023-11-21T04:52:28;2.67;;;0.90;;
68655;SDS011;55638;51.122;13.606;2023-11-21T04:54:00;1.55;;;0.90;;
68655;SDS011;55638;51.122;13.606;2023-11-21T04:55:31;1.83;;;1.10;;
68655;SDS011;55638;51.122;13.606;2023-11-21T04:57:03;2.55;;;1.20;;
68655;SDS011;55638;51.122;13.606;2023-11-21T04:58:36;2.53;;;1.10;;
68655;SDS011;55638;51.122;13.606;2023-11-21T05:00:09;1.75;;;1.00;;
68655;SDS011;55638;51.122;13.606;2023-11-21T05:01:41;1.88;;;0.98;;
68655;SDS011;55638;51.122;13.606;2023-11-21T05:03:14;3.28;;;1.40;;
68655;SDS011;55638;51.122;13.606;2023-11-21T05:04:46;1.63;;;1.10;;
68655;SDS011;55638;51.122;13.606;2023-11-21T05:06:19;2.20;;;1.27;;
68655;SDS011;55638;51.122;13.606;2023-11-21T05:07:51;3.28;;;1.33;;
68655;SDS011;55638;51.122;13.606;2023-11-21T05:09:24;2.83;;;1.30;;
68655;SDS011;55638;51.122;13.606;2023-11-21T05:10:56;4.18;;;1.40;;
68655;SDS011;55638;51.122;13.606;2023-11-21T05:12:30;2.42;;;1.20;;
68655;SDS011;55638;51.122;13.606;2023-11-21T05:14:05;3.25;;;1.38;;
68655;SDS011;55638;51.122;13.606;2023-11-21T05:15:38;3.08;;;1.23;;
68655;SDS011;55638;51.122;13.606;2023-11-21T05:17:11;2.05;;;1.20;;
68655;SDS011;55638;51.122;13.606;2023-11-21T05:18:43;4.28;;;1.20;;
68655;SDS011;55638;51.122;13.606;2023-11-21T05:20:15;2.03;;;1.02;;
68655;SDS011;55638;51.122;13.606;2023-11-21T05:21:55;2.08;;;1.13;;
68655;SDS011;55638;51.122;13.606;2023-11-21T05:23:27;2.83;;;1.40;;
68655;SDS011;55638;51.122;13.606;2023-11-21T05:24:59;2.03;;;1.10;;
68655;SDS011;55638;51.122;13.606;2023-11-21T05:26:31;4.07;;;1.40;;
68655;SDS011;55638;51.122;13.606;2023-11-21T05:28:03;2.38;;;1.27;;
68655;SDS011;55638;51.122;13.606;2023-11-21T05:29:35;2.28;;;1.00;;
68655;SDS011;55638;51.122;13.606;2023-11-21T05:31:12;2.08;;;1.10;;
68655;SDS011;55638;51.122;13.606;2023-11-21T05:32:47;2.55;;;1.00;;
68655;SDS011;55638;51.122;13.606;2023-11-21T05:34:21;2.22;;;1.13;;
68655;SDS011;55638;51.122;13.606;2023-11-21T05:35:55;2.80;;;0.95;;
68655;SDS011;55638;51.122;13.606;2023-11-21T05:37:27;3.72;;;1.00;;
68655;SDS011;55638;51.122;13.606;2023-11-21T05:38:59;1.92;;;1.25;;
68655;SDS011;55638;51.122;13.606;2023-11-21T05:40:31;2.65;;;1.20;;
68655;SDS011;55638;51.122;13.606;2023-11-21T05:42:03;2.63;;;0.93;;
68655;SDS011;55638;51.122;13.606;2023-11-21T05:43:35;1.67;;;1.00;;
68655;SDS011;55638;51.122;13.606;2023-11-21T05:45:07;2.65;;;1.10;;
68655;SDS011;55638;51.122;13.606;2023-11-21T05:46:44;2.03;;;1.40;;
68655;SDS011;55638;51.122;13.606;2023-11-21T05:48:16;4.32;;;1.23;;
68655;SDS011;55638;51.122;13.606;2023-11-21T05:49:48;3.45;;;1.15;;
68655;SDS011;55638;51.122;13.606;2023-11-21T05:51:22;1.85;;;1.30;;
68655;SDS011;55638;51.122;13.606;2023-11-21T05:52:56;1.88;;;1.15;;
68655;SDS011;55638;51.122;13.606;2023-11-21T05:54:32;2.40;;;1.33;;
68655;SDS011;55638;51.122;13.606;2023-11-21T05:56:04;1.83;;;1.20;;
68655;SDS011;55638;51.122;13.606;2023-11-21T05:57:36;3.10;;;1.50;;
68655;SDS011;55638;51.122;13.606;2023-11-21T05:59:10;3.28;;;1.40;;
68655;SDS011;55638;51.122;13.606;2023-11-21T06:00:42;2.78;;;1.80;;
68655;SDS011;55638;51.122;13.606;2023-11-21T06:02:14;2.38;;;1.20;;
68655;SDS011;55638;51.122;13.606;2023-11-21T06:03:45;4.05;;;1.30;;
68655;SDS011;55638;51.122;13.606;2023-11-21T06:05:18;3.53;;;1.42;;
68655;SDS011;55638;51.122;13.606;2023-11-21T06:06:51;4.35;;;1.95;;
68655;SDS011;55638;51.122;13.606;2023-11-21T06:08:24;2.53;;;1.35;;
68655;SDS011;55638;51.122;13.606;2023-11-21T06:09:56;4.78;;;1.73;;
68655;SDS011;55638;51.122;13.606;2023-11-21T06:11:28;4.35;;;1.88;;
68655;SDS011;55638;51.122;13.606;2023-11-21T06:13:01;3.38;;;1.95;;
68655;SDS011;55638;51.122;13.606;2023-11-21T06:14:34;3.67;;;1.73;;
68655;SDS011;55638;51.122;13.606;2023-11-21T06:16:07;3.92;;;2.03;;
68655;SDS011;55638;51.122;13.606;2023-11-21T06:17:39;4.55;;;1.95;;
68655;SDS011;55638;51.122;13.606;2023-11-21T06:19:12;5.15;;;1.52;;
68655;SDS011;55638;51.122;13.606;2023-11-21T06:20:44;4.65;;;2.10;;
68655;SDS011;55638;51.122;13.606;2023-11-21T06:22:16;4.30;;;2.10;;
68655;SDS011;55638;51.122;13.606;2023-11-21T06:23:48;6.05;;;1.90;;
68655;SDS011;55638;51.122;13.606;2023-11-21T06:25:24;4.13;;;2.08;;
68655;SDS011;55638;51.122;13.606;2023-11-21T06:26:56;3.85;;;1.65;;
68655;SDS011;55638;51.122;13.606;2023-11-21T06:28:28;2.83;;;1.70;;
68655;SDS011;55638;51.122;13.606;2023-11-21T06:30:00;5.43;;;2.25;;
68655;SDS011;55638;51.122;13.606;2023-11-21T06:31:32;3.08;;;2.00;;
68655;SDS011;55638;51.122;13.606;2023-11-21T06:33:04;3.95;;;1.90;;
68655;SDS011;55638;51.122;13.606;2023-11-21T06:34:38;2.88;;;1.90;;
68655;SDS011;55638;51.122;13.606;2023-11-21T06:36:10;2.38;;;1.80;;
68655;SDS011;55638;51.122;13.606;2023-11-21T06:37:43;3.20;;;1.85;;
68655;SDS011;55638;51.122;13.606;2023-11-21T06:39:21;6.03;;;2.35;;
68655;SDS011;55638;51.122;13.606;2023-11-21T06:40:54;3.53;;;1.80;;
68655;SDS011;55638;51.122;13.606;2023-11-21T06:42:26;4.03;;;2.33;;
68655;SDS011;55638;51.122;13.606;2023-11-21T06:43:59;5.22;;;1.98;;
68655;SDS011;55638;51.122;13.606;2023-11-21T06:45:31;4.25;;;2.05;;
68655;SDS011;55638;51.122;13.606;2023-11-21T06:47:03;3.03;;;1.92;;
68655;SDS011;55638;51.122;13.606;2023-11-21T06:48:36;5.15;;;2.15;;
68655;SDS011;55638;51.122;13.606;2023-11-21T06:50:10;3.95;;;1.90;;
68655;SDS011;55638;51.122;13.606;2023-11-21T06:51:42;4.78;;;2.22;;
68655;SDS011;55638;51.122;13.606;2023-11-21T06:53:14;4.00;;;2.00;;
68655;SDS011;55638;51.122;13.606;2023-11-21T06:54:46;3.45;;;1.95;;
68655;SDS011;55638;51.122;13.606;2023-11-21T06:56:19;3.75;;;2.10;;
68655;SDS011;55638;51.122;13.606;2023-11-21T06:57:51;5.05;;;2.30;;
68655;SDS011;55638;51.122;13.606;2023-11-21T06:59:23;3.17;;;2.20;;
68655;SDS011;55638;51.122;13.606;2023-11-21T07:00:56;3.53;;;2.08;;
68655;SDS011;55638;51.122;13.606;2023-11-21T07:02:30;3.47;;;2.03;;
68655;SDS011;55638;51.122;13.606;2023-11-21T07:04:02;4.57;;;2.20;;
68655;SDS011;55638;51.122;13.606;2023-11-21T07:05:34;5.50;;;2.60;;
68655;SDS011;55638;51.122;13.606;2023-11-21T07:07:06;4.75;;;2.40;;
68655;SDS011;55638;51.122;13.606;2023-11-21T07:08:38;3.75;;;2.35;;
68655;SDS011;55638;51.122;13.606;2023-11-21T07:10:10;3.05;;;1.98;;
68655;SDS011;55638;51.122;13.606;2023-11-21T07:11:42;4.30;;;2.47;;
68655;SDS011;55638;51.122;13.606;2023-11-21T07:13:14;2.80;;;2.00;;
68655;SDS011;55638;51.122;13.606;2023-11-21T07:14:46;4.20;;;1.83;;
68655;SDS011;55638;51.122;13.606;2023-11-21T07:16:18;5.07;;;2.10;;
68655;SDS011;55638;51.122;13.606;2023-11-21T07:17:50;3.50;;;2.38;;
68655;SDS011;55638;51.122;13.606;2023-11-21T07:19:22;5.00;;;2.25;;
68655;SDS011;55638;51.122;13.606;2023-11-21T07:20:55;3.88;;;2.40;;
68655;SDS011;55638;51.122;13.606;2023-11-21T07:22:27;5.53;;;3.22;;
68655;SDS011;55638;51.122;13.606;2023-11-21T07:23:59;5.55;;;3.42;;
68655;SDS011;55638;51.122;13.606;2023-11-21T07:25:32;6.20;;;2.90;;
68655;SDS011;55638;51.122;13.606;2023-11-21T07:27:05;5.25;;;2.97;;
68655;SDS011;55638;51.122;13.606;2023-11-21T07:28:37;5.63;;;3.10;;
68655;SDS011;55638;51.122;13.606;2023-11-21T07:30:09;4.95;;;3.25;;
68655;SDS011;55638;51.122;13.606;2023-11-21T07:31:42;6.00;;;3.65;;
68655;SDS011;55638;51.122;13.606;2023-11-21T07:33:14;7.13;;;3.60;;
68655;SDS011;55638;51.122;13.606;2023-11-21T07:34:46;5.05;;;3.25;;
68655;SDS011;55638;51.122;13.606;2023-11-21T07:36:18;4.78;;;2.95;;
68655;SDS011;55638;51.122;13.606;2023-11-21T07:37:52;5.28;;;2.83;;
68655;SDS011;55638;51.122;13.606;2023-11-21T07:39:24;3.22;;;2.58;;
68655;SDS011;55638;51.122;13.606;2023-11-21T07:40:56;4.65;;;2.20;;
68655;SDS011;55638;51.122;13.606;2023-11-21T07:42:28;4.72;;;2.97;;
68655;SDS011;55638;51.122;13.606;2023-11-21T07:44:00;5.22;;;2.88;;
68655;SDS011;55638;51.122;13.606;2023-11-21T07:45:32;5.38;;;2.55;;
68655;SDS011;55638;51.122;13.606;2023-11-21T07:47:04;6.38;;;2.88;;
68655;SDS011;55638;51.122;13.606;2023-11-21T07:48:37;4.25;;;2.78;;
68655;SDS011;55638;51.122;13.606;2023-11-21T07:50:09;6.25;;;2.95;;
68655;SDS011;55638;51.122;13.606;2023-11-21T07:51:41;5.88;;;2.90;;
68655;SDS011;55638;51.122;13.606;2023-11-21T07:53:13;6.25;;;3.00;;
68655;SDS011;55638;51.122;13.606;2023-11-21T07:54:46;6.38;;;3.35;;
68655;SDS011;55638;51.122;13.606;2023-11-21T07:56:18;4.60;;;2.75;;
68655;SDS011;55638;51.122;13.606;2023-11-21T07:57:50;7.13;;;3.22;;
68655;SDS011;55638;51.122;13.606;2023-11-21T07:59:22;4.25;;;2.58;;
68655;SDS011;55638;51.122;13.606;2023-11-21T08:00:54;5.07;;;3.08;;
68655;SDS011;55638;51.122;13.606;2023-11-21T08:02:26;4.43;;;3.10;;
68655;SDS011;55638;51.122;13.606;2023-11-21T08:03:59;5.68;;;3.03;;
68655;SDS011;55638;51.122;13.606;2023-11-21T08:05:36;6.22;;;3.10;;
68655;SDS011;55638;51.122;13.606;2023-11-21T08:07:08;7.32;;;3.53;;
68655;SDS011;55638;51.122;13.606;2023-11-21T08:08:41;6.75;;;3.30;;
68655;SDS011;55638;51.122;13.606;2023-11-21T08:10:14;5.78;;;2.92;;
68655;SDS011;55638;51.122;13.606;2023-11-21T08:11:46;5.88;;;3.72;;
68655;SDS011;55638;51.122;13.606;2023-11-21T08:13:18;5.05;;;3.30;;
68655;SDS011;55638;51.122;13.606;2023-11-21T08:14:50;6.93;;;3.25;;
68655;SDS011;55638;51.122;13.606;2023-11-21T08:16:22;6.85;;;3.72;;
68655;SDS011;55638;51.122;13.606;2023-11-21T08:17:56;9.23;;;3.70;;
68655;SDS011;55638;51.122;13.606;2023-11-21T08:19:27;7.18;;;3.53;;
68655;SDS011;55638;51.122;13.606;2023-11-21T08:21:00;4.90;;;3.15;;
68655;SDS011;55638;51.122;13.606;2023-11-21T08:22:32;6.63;;;3.30;;
68655;SDS011;55638;51.122;13.606;2023-11-21T08:24:04;5.45;;;3.58;;
68655;SDS011;55638;51.122;13.606;2023-11-21T08:25:37;4.75;;;3.08;;
68655;SDS011;55638;51.122;13.606;2023-11-21T08:27:09;5.35;;;3.47;;
68655;SDS011;55638;51.122;13.606;2023-11-21T08:28:41;4.43;;;3.20;;
68655;SDS011;55638;51.122;13.606;2023-11-21T08:30:13;4.72;;;3.17;;
68655;SDS011;55638;51.122;13.606;2023-11-21T08:31:45;7.32;;;3.40;;
68655;SDS011;55638;51.122;13.606;2023-11-21T08:33:18;8.07;;;3.65;;
68655;SDS011;55638;51.122;13.606;2023-11-21T08:34:50;5.55;;;3.20;;
68655;SDS011;55638;51.122;13.606;2023-11-21T08:36:24;6.32;;;2.88;;
68655;SDS011;55638;51.122;13.606;2023-11-21T08:37:57;7.47;;;3.75;;
68655;SDS011;55638;51.122;13.606;2023-11-21T08:39:29;4.97;;;2.95;;
68655;SDS011;55638;51.122;13.606;2023-11-21T08:41:02;4.82;;;3.30;;
68655;SDS011;55638;51.122;13.606;2023-11-21T08:42:34;6.07;;;3.15;;
68655;SDS011;55638;51.122;13.606;2023-11-21T08:44:06;6.82;;;3.65;;
68655;SDS011;55638;51.122;13.606;2023-11-21T08:45:39;5.75;;;3.47;;
68655;SDS011;55638;51.122;13.606;2023-11-21T08:47:11;7.55;;;3.40;;
68655;SDS011;55638;51.122;13.606;2023-11-21T08:48:43;6.72;;;3.35;;
68655;SDS011;55638;51.122;13.606;2023-11-21T08:50:15;6.47;;;3.20;;
68655;SDS011;55638;51.122;13.606;2023-11-21T08:51:47;6.57;;;3.42;;
68655;SDS011;55638;51.122;13.606;2023-11-21T08:53:19;8.10;;;3.67;;
68655;SDS011;55638;51.122;13.606;2023-11-21T08:54:51;7.97;;;4.05;;
68655;SDS011;55638;51.122;13.606;2023-11-21T08:56:28;5.93;;;3.60;;
68655;SDS011;55638;51.122;13.606;2023-11-21T08:57:59;7.47;;;4.03;;
68655;SDS011;55638;51.122;13.606;2023-11-21T08:59:32;7.00;;;3.90;;
68655;SDS011;55638;51.122;13.606;2023-11-21T09:01:04;6.43;;;3.90;;
68655;SDS011;55638;51.122;13.606;2023-11-21T09:02:38;6.30;;;4.00;;
68655;SDS011;55638;51.122;13.606;2023-11-21T09:04:13;5.82;;;3.80;;
68655;SDS011;55638;51.122;13.606;2023-11-21T09:05:45;7.97;;;4.45;;
68655;SDS011;55638;51.122;13.606;2023-11-21T09:07:17;6.63;;;4.25;;
68655;SDS011;55638;51.122;13.606;2023-11-21T09:08:50;5.10;;;3.63;;